sensor_id;sensor_type;location;lat;lon;timestamp;P1;durP1;ratioP1;P2;durP2;ratioP2
5277;SDS011;2662;51.194;6.614;2023-04-24T00:01:38;1.10;;;0.93;;
5277;SDS011;2662;51.194;6.614;2023-04-24T00:04:05;1.20;;;0.80;;
5277;SDS011;2662;51.194;6.614;2023-04-24T00:06:36;0.93;;;0.93;;
5277;SDS011;2662;51.194;6.614;2023-04-24T00:09:05;1.27;;;0.77;;
5277;SDS011;2662;51.194;6.614;2023-04-24T00:11:31;3.33;;;1.00;;
5277;SDS011;2662;51.194;6.614;2023-04-24T00:13:58;1.87;;;1.13;;
5277;SDS011;2662;51.194;6.614;2023-04-24T00:16:25;1.77;;;1.00;;
5277;SDS011;2662;51.194;6.614;2023-04-24T00:18:51;1.47;;;1.23;;
5277;SDS011;2662;51.194;6.614;2023-04-24T00:21:21;1.03;;;1.03;;
5277;SDS011;2662;51.194;6.614;2023-04-24T00:23:50;2.10;;;1.00;;
5277;SDS011;2662;51.194;6.614;2023-04-24T00:26:18;2.30;;;1.13;;
5277;SDS011;2662;51.194;6.614;2023-04-24T00:28:45;1.30;;;1.20;;
5277;SDS011;2662;51.194;6.614;2023-04-24T00:31:12;1.60;;;1.50;;
5277;SDS011;2662;51.194;6.614;2023-04-24T00:33:38;1.77;;;1.40;;
5277;SDS011;2662;51.194;6.614;2023-04-24T00:36:05;2.10;;;1.53;;
5277;SDS011;2662;51.194;6.614;2023-04-24T00:38:32;1.47;;;1.37;;
5277;SDS011;2662;51.194;6.614;2023-04-24T00:40:59;3.93;;;1.53;;
5277;SDS011;2662;51.194;6.614;2023-04-24T00:43:27;4.63;;;1.40;;
5277;SDS011;2662;51.194;6.614;2023-04-24T00:45:54;1.77;;;1.67;;
5277;SDS011;2662;51.194;6.614;2023-04-24T00:48:20;3.00;;;1.50;;
5277;SDS011;2662;51.194;6.614;2023-04-24T00:50:47;2.30;;;1.60;;
5277;SDS011;2662;51.194;6.614;2023-04-24T00:53:14;5.20;;;1.80;;
5277;SDS011;2662;51.194;6.614;2023-04-24T00:55:41;2.00;;;1.90;;
5277;SDS011;2662;51.194;6.614;2023-04-24T00:58:08;7.50;;;1.60;;
5277;SDS011;2662;51.194;6.614;2023-04-24T01:00:36;6.37;;;1.97;;
5277;SDS011;2662;51.194;6.614;2023-04-24T01:03:03;2.27;;;2.17;;
5277;SDS011;2662;51.194;6.614;2023-04-24T01:05:32;9.33;;;2.20;;
5277;SDS011;2662;51.194;6.614;2023-04-24T01:07:59;3.27;;;2.50;;
5277;SDS011;2662;51.194;6.614;2023-04-24T01:10:27;3.40;;;2.57;;
5277;SDS011;2662;51.194;6.614;2023-04-24T01:12:56;3.33;;;2.30;;
5277;SDS011;2662;51.194;6.614;2023-04-24T01:15:24;4.17;;;3.30;;
5277;SDS011;2662;51.194;6.614;2023-04-24T01:17:53;3.73;;;2.77;;
5277;SDS011;2662;51.194;6.614;2023-04-24T01:20:19;5.67;;;3.40;;
5277;SDS011;2662;51.194;6.614;2023-04-24T01:22:48;5.83;;;3.77;;
5277;SDS011;2662;51.194;6.614;2023-04-24T01:25:15;6.40;;;3.40;;
5277;SDS011;2662;51.194;6.614;2023-04-24T01:27:41;5.27;;;3.80;;
5277;SDS011;2662;51.194;6.614;2023-04-24T01:30:08;7.87;;;3.83;;
5277;SDS011;2662;51.194;6.614;2023-04-24T01:32:36;6.60;;;4.10;;
5277;SDS011;2662;51.194;6.614;2023-04-24T01:35:04;9.07;;;4.40;;
5277;SDS011;2662;51.194;6.614;2023-04-24T01:37:31;7.83;;;4.60;;
5277;SDS011;2662;51.194;6.614;2023-04-24T01:40:00;4.83;;;3.77;;
5277;SDS011;2662;51.194;6.614;2023-04-24T01:42:28;8.03;;;4.70;;
5277;SDS011;2662;51.194;6.614;2023-04-24T01:44:55;8.77;;;5.27;;
5277;SDS011;2662;51.194;6.614;2023-04-24T01:47:23;11.70;;;5.70;;
5277;SDS011;2662;51.194;6.614;2023-04-24T01:49:50;7.30;;;4.90;;
5277;SDS011;2662;51.194;6.614;2023-04-24T01:52:17;11.30;;;5.33;;
5277;SDS011;2662;51.194;6.614;2023-04-24T01:54:44;9.97;;;5.60;;
5277;SDS011;2662;51.194;6.614;2023-04-24T01:57:12;11.53;;;5.83;;
5277;SDS011;2662;51.194;6.614;2023-04-24T01:59:40;13.73;;;6.57;;
5277;SDS011;2662;51.194;6.614;2023-04-24T02:02:06;10.63;;;6.40;;
5277;SDS011;2662;51.194;6.614;2023-04-24T02:04:33;14.30;;;6.37;;
5277;SDS011;2662;51.194;6.614;2023-04-24T02:07:00;9.93;;;6.40;;
5277;SDS011;2662;51.194;6.614;2023-04-24T02:09:27;19.40;;;6.93;;
5277;SDS011;2662;51.194;6.614;2023-04-24T02:11:53;10.07;;;6.67;;
5277;SDS011;2662;51.194;6.614;2023-04-24T02:14:22;14.97;;;7.00;;
5277;SDS011;2662;51.194;6.614;2023-04-24T02:16:49;11.40;;;6.80;;
5277;SDS011;2662;51.194;6.614;2023-04-24T02:19:16;17.70;;;7.60;;
5277;SDS011;2662;51.194;6.614;2023-04-24T02:21:42;13.60;;;7.30;;
5277;SDS011;2662;51.194;6.614;2023-04-24T02:24:09;12.10;;;7.17;;
5277;SDS011;2662;51.194;6.614;2023-04-24T02:26:36;15.30;;;7.53;;
5277;SDS011;2662;51.194;6.614;2023-04-24T02:29:03;11.60;;;7.80;;
5277;SDS011;2662;51.194;6.614;2023-04-24T02:31:31;14.40;;;6.70;;
5277;SDS011;2662;51.194;6.614;2023-04-24T02:33:58;13.93;;;7.50;;
5277;SDS011;2662;51.194;6.614;2023-04-24T02:36:24;14.30;;;8.23;;
5277;SDS011;2662;51.194;6.614;2023-04-24T02:38:51;18.17;;;8.53;;
5277;SDS011;2662;51.194;6.614;2023-04-24T02:41:18;16.00;;;7.60;;
5277;SDS011;2662;51.194;6.614;2023-04-24T02:43:45;17.60;;;8.40;;
5277;SDS011;2662;51.194;6.614;2023-04-24T02:46:11;18.13;;;7.57;;
5277;SDS011;2662;51.194;6.614;2023-04-24T02:48:39;11.73;;;6.73;;
5277;SDS011;2662;51.194;6.614;2023-04-24T02:51:06;14.33;;;7.70;;
5277;SDS011;2662;51.194;6.614;2023-04-24T02:53:33;18.37;;;7.77;;
5277;SDS011;2662;51.194;6.614;2023-04-24T02:56:00;11.27;;;7.27;;
5277;SDS011;2662;51.194;6.614;2023-04-24T02:58:26;10.43;;;7.23;;
5277;SDS011;2662;51.194;6.614;2023-04-24T03:00:53;13.20;;;7.30;;
5277;SDS011;2662;51.194;6.614;2023-04-24T03:03:21;17.87;;;7.50;;
5277;SDS011;2662;51.194;6.614;2023-04-24T03:05:50;14.17;;;7.43;;
5277;SDS011;2662;51.194;6.614;2023-04-24T03:08:16;10.53;;;7.40;;
5277;SDS011;2662;51.194;6.614;2023-04-24T03:10:43;11.27;;;6.93;;
5277;SDS011;2662;51.194;6.614;2023-04-24T03:13:10;15.00;;;7.00;;
5277;SDS011;2662;51.194;6.614;2023-04-24T03:15:37;11.33;;;6.43;;
5277;SDS011;2662;51.194;6.614;2023-04-24T03:18:03;11.20;;;7.00;;
5277;SDS011;2662;51.194;6.614;2023-04-24T03:20:30;18.20;;;7.70;;
5277;SDS011;2662;51.194;6.614;2023-04-24T03:22:58;13.03;;;6.80;;
5277;SDS011;2662;51.194;6.614;2023-04-24T03:25:25;14.93;;;6.80;;
5277;SDS011;2662;51.194;6.614;2023-04-24T03:27:52;17.27;;;7.73;;
5277;SDS011;2662;51.194;6.614;2023-04-24T03:30:19;12.97;;;7.37;;
5277;SDS011;2662;51.194;6.614;2023-04-24T03:32:46;11.63;;;6.33;;
5277;SDS011;2662;51.194;6.614;2023-04-24T03:35:13;13.90;;;6.97;;
5277;SDS011;2662;51.194;6.614;2023-04-24T03:37:39;19.60;;;6.60;;
5277;SDS011;2662;51.194;6.614;2023-04-24T03:40:08;15.13;;;7.23;;
5277;SDS011;2662;51.194;6.614;2023-04-24T03:42:35;13.17;;;7.67;;
5277;SDS011;2662;51.194;6.614;2023-04-24T03:45:02;13.67;;;7.33;;
5277;SDS011;2662;51.194;6.614;2023-04-24T03:47:29;15.50;;;7.30;;
5277;SDS011;2662;51.194;6.614;2023-04-24T03:49:56;13.53;;;7.10;;
5277;SDS011;2662;51.194;6.614;2023-04-24T03:52:23;14.10;;;6.70;;
5277;SDS011;2662;51.194;6.614;2023-04-24T03:54:49;17.60;;;7.10;;
5277;SDS011;2662;51.194;6.614;2023-04-24T03:57:17;12.87;;;7.73;;
5277;SDS011;2662;51.194;6.614;2023-04-24T03:59:44;14.87;;;7.17;;
5277;SDS011;2662;51.194;6.614;2023-04-24T04:02:11;12.43;;;7.53;;
5277;SDS011;2662;51.194;6.614;2023-04-24T04:04:38;13.00;;;7.63;;
5277;SDS011;2662;51.194;6.614;2023-04-24T04:07:04;12.37;;;7.10;;
5277;SDS011;2662;51.194;6.614;2023-04-24T04:09:31;10.70;;;7.30;;
5277;SDS011;2662;51.194;6.614;2023-04-24T04:11:58;13.43;;;6.43;;
5277;SDS011;2662;51.194;6.614;2023-04-24T04:14:27;11.43;;;7.03;;
5277;SDS011;2662;51.194;6.614;2023-04-24T04:16:53;9.63;;;6.90;;
5277;SDS011;2662;51.194;6.614;2023-04-24T04:19:20;14.80;;;7.20;;
5277;SDS011;2662;51.194;6.614;2023-04-24T04:21:47;20.20;;;7.30;;
5277;SDS011;2662;51.194;6.614;2023-04-24T04:24:17;11.57;;;6.73;;
5277;SDS011;2662;51.194;6.614;2023-04-24T04:26:45;13.93;;;6.97;;
5277;SDS011;2662;51.194;6.614;2023-04-24T04:29:12;11.00;;;6.40;;
5277;SDS011;2662;51.194;6.614;2023-04-24T04:31:40;19.00;;;7.20;;
5277;SDS011;2662;51.194;6.614;2023-04-24T04:34:07;12.23;;;6.53;;
5277;SDS011;2662;51.194;6.614;2023-04-24T04:36:34;12.27;;;7.27;;
5277;SDS011;2662;51.194;6.614;2023-04-24T04:39:01;8.97;;;6.37;;
5277;SDS011;2662;51.194;6.614;2023-04-24T04:41:28;9.83;;;6.30;;
5277;SDS011;2662;51.194;6.614;2023-04-24T04:43:55;13.30;;;6.53;;
5277;SDS011;2662;51.194;6.614;2023-04-24T04:46:23;18.80;;;7.50;;
5277;SDS011;2662;51.194;6.614;2023-04-24T04:48:52;18.60;;;6.33;;
5277;SDS011;2662;51.194;6.614;2023-04-24T04:51:19;18.67;;;7.00;;
5277;SDS011;2662;51.194;6.614;2023-04-24T04:53:46;12.00;;;7.03;;
5277;SDS011;2662;51.194;6.614;2023-04-24T04:56:12;12.87;;;7.00;;
5277;SDS011;2662;51.194;6.614;2023-04-24T04:58:39;12.87;;;6.23;;
5277;SDS011;2662;51.194;6.614;2023-04-24T05:01:06;9.00;;;5.30;;
5277;SDS011;2662;51.194;6.614;2023-04-24T05:03:33;11.00;;;5.90;;
5277;SDS011;2662;51.194;6.614;2023-04-24T05:06:01;17.50;;;6.80;;
5277;SDS011;2662;51.194;6.614;2023-04-24T05:08:27;12.40;;;5.83;;
5277;SDS011;2662;51.194;6.614;2023-04-24T05:10:54;10.40;;;5.93;;
5277;SDS011;2662;51.194;6.614;2023-04-24T05:13:21;13.37;;;5.60;;
5277;SDS011;2662;51.194;6.614;2023-04-24T05:15:48;8.57;;;5.43;;
5277;SDS011;2662;51.194;6.614;2023-04-24T05:18:15;11.40;;;6.17;;
5277;SDS011;2662;51.194;6.614;2023-04-24T05:20:41;10.07;;;5.47;;
5277;SDS011;2662;51.194;6.614;2023-04-24T05:23:10;7.37;;;5.87;;
5277;SDS011;2662;51.194;6.614;2023-04-24T05:25:37;13.13;;;5.97;;
5277;SDS011;2662;51.194;6.614;2023-04-24T05:28:05;7.60;;;5.90;;
5277;SDS011;2662;51.194;6.614;2023-04-24T05:30:32;7.47;;;5.43;;
5277;SDS011;2662;51.194;6.614;2023-04-24T05:32:58;13.17;;;6.10;;
5277;SDS011;2662;51.194;6.614;2023-04-24T05:35:25;8.20;;;5.00;;
5277;SDS011;2662;51.194;6.614;2023-04-24T05:37:52;8.53;;;5.70;;
5277;SDS011;2662;51.194;6.614;2023-04-24T05:40:20;8.17;;;5.47;;
5277;SDS011;2662;51.194;6.614;2023-04-24T05:42:46;7.30;;;4.97;;
5277;SDS011;2662;51.194;6.614;2023-04-24T05:45:13;8.20;;;5.07;;
5277;SDS011;2662;51.194;6.614;2023-04-24T05:47:41;9.80;;;4.83;;
5277;SDS011;2662;51.194;6.614;2023-04-24T05:50:08;8.90;;;4.83;;
5277;SDS011;2662;51.194;6.614;2023-04-24T05:52:35;7.30;;;5.30;;
5277;SDS011;2662;51.194;6.614;2023-04-24T05:55:02;6.40;;;4.43;;
5277;SDS011;2662;51.194;6.614;2023-04-24T05:57:31;6.67;;;4.30;;
5277;SDS011;2662;51.194;6.614;2023-04-24T05:59:58;6.83;;;4.30;;
5277;SDS011;2662;51.194;6.614;2023-04-24T06:02:25;9.57;;;5.30;;
5277;SDS011;2662;51.194;6.614;2023-04-24T06:04:52;7.23;;;4.77;;
5277;SDS011;2662;51.194;6.614;2023-04-24T06:07:19;6.80;;;4.50;;
5277;SDS011;2662;51.194;6.614;2023-04-24T06:09:46;4.80;;;3.83;;
5277;SDS011;2662;51.194;6.614;2023-04-24T06:12:12;7.00;;;4.70;;
5277;SDS011;2662;51.194;6.614;2023-04-24T06:14:41;5.30;;;4.20;;
5277;SDS011;2662;51.194;6.614;2023-04-24T06:17:07;7.30;;;4.30;;
5277;SDS011;2662;51.194;6.614;2023-04-24T06:19:34;7.27;;;4.33;;
5277;SDS011;2662;51.194;6.614;2023-04-24T06:22:01;8.27;;;3.83;;
5277;SDS011;2662;51.194;6.614;2023-04-24T06:24:27;8.77;;;4.60;;
5277;SDS011;2662;51.194;6.614;2023-04-24T06:26:54;4.80;;;3.67;;
5277;SDS011;2662;51.194;6.614;2023-04-24T06:29:21;10.63;;;4.37;;
5277;SDS011;2662;51.194;6.614;2023-04-24T06:31:49;5.17;;;3.67;;
5277;SDS011;2662;51.194;6.614;2023-04-24T06:34:16;7.20;;;4.00;;
5277;SDS011;2662;51.194;6.614;2023-04-24T06:36:43;7.10;;;3.70;;
5277;SDS011;2662;51.194;6.614;2023-04-24T06:39:10;4.60;;;4.10;;
5277;SDS011;2662;51.194;6.614;2023-04-24T06:41:37;5.37;;;3.63;;
5277;SDS011;2662;51.194;6.614;2023-04-24T06:44:04;4.40;;;3.90;;
5277;SDS011;2662;51.194;6.614;2023-04-24T06:46:31;5.43;;;4.00;;
5277;SDS011;2662;51.194;6.614;2023-04-24T06:48:59;7.63;;;4.43;;
5277;SDS011;2662;51.194;6.614;2023-04-24T06:51:26;5.43;;;4.00;;
5277;SDS011;2662;51.194;6.614;2023-04-24T06:53:53;4.30;;;3.50;;
5277;SDS011;2662;51.194;6.614;2023-04-24T06:56:21;6.10;;;3.57;;
5277;SDS011;2662;51.194;6.614;2023-04-24T06:58:48;3.20;;;2.83;;
5277;SDS011;2662;51.194;6.614;2023-04-24T07:01:14;4.23;;;3.20;;
5277;SDS011;2662;51.194;6.614;2023-04-24T07:03:41;4.80;;;2.93;;
5277;SDS011;2662;51.194;6.614;2023-04-24T07:06:09;4.23;;;2.93;;
5277;SDS011;2662;51.194;6.614;2023-04-24T07:08:37;3.03;;;1.93;;
5277;SDS011;2662;51.194;6.614;2023-04-24T07:11:04;3.33;;;2.40;;
5277;SDS011;2662;51.194;6.614;2023-04-24T07:13:31;2.50;;;2.23;;
5277;SDS011;2662;51.194;6.614;2023-04-24T07:16:00;3.77;;;2.10;;
5277;SDS011;2662;51.194;6.614;2023-04-24T07:18:27;1.83;;;1.73;;
5277;SDS011;2662;51.194;6.614;2023-04-24T07:20:53;1.40;;;1.30;;
5277;SDS011;2662;51.194;6.614;2023-04-24T07:23:21;2.33;;;1.80;;
5277;SDS011;2662;51.194;6.614;2023-04-24T07:25:48;1.40;;;1.30;;
5277;SDS011;2662;51.194;6.614;2023-04-24T07:28:15;0.80;;;0.80;;
5277;SDS011;2662;51.194;6.614;2023-04-24T07:30:42;0.70;;;0.60;;
5277;SDS011;2662;51.194;6.614;2023-04-24T07:33:09;2.83;;;0.77;;
5277;SDS011;2662;51.194;6.614;2023-04-24T07:35:38;0.90;;;0.60;;
5277;SDS011;2662;51.194;6.614;2023-04-24T07:38:05;0.70;;;0.70;;
5277;SDS011;2662;51.194;6.614;2023-04-24T07:40:33;0.70;;;0.50;;
5277;SDS011;2662;51.194;6.614;2023-04-24T07:42:59;0.77;;;0.60;;
5277;SDS011;2662;51.194;6.614;2023-04-24T07:45:26;3.30;;;0.87;;
5277;SDS011;2662;51.194;6.614;2023-04-24T07:47:53;0.53;;;0.53;;
5277;SDS011;2662;51.194;6.614;2023-04-24T07:50:20;0.50;;;0.50;;
5277;SDS011;2662;51.194;6.614;2023-04-24T07:52:46;2.90;;;0.60;;
5277;SDS011;2662;51.194;6.614;2023-04-24T07:55:13;0.50;;;0.40;;
5277;SDS011;2662;51.194;6.614;2023-04-24T07:57:41;0.60;;;0.60;;
5277;SDS011;2662;51.194;6.614;2023-04-24T08:00:09;0.60;;;0.60;;
5277;SDS011;2662;51.194;6.614;2023-04-24T08:02:36;0.57;;;0.57;;
5277;SDS011;2662;51.194;6.614;2023-04-24T08:05:03;0.87;;;0.87;;
5277;SDS011;2662;51.194;6.614;2023-04-24T08:07:31;1.30;;;1.20;;
5277;SDS011;2662;51.194;6.614;2023-04-24T08:09:57;1.20;;;1.20;;
5277;SDS011;2662;51.194;6.614;2023-04-24T08:12:25;1.93;;;1.53;;
5277;SDS011;2662;51.194;6.614;2023-04-24T08:14:53;1.93;;;1.70;;
5277;SDS011;2662;51.194;6.614;2023-04-24T08:17:20;1.80;;;1.70;;
5277;SDS011;2662;51.194;6.614;2023-04-24T08:19:46;2.47;;;2.20;;
5277;SDS011;2662;51.194;6.614;2023-04-24T08:22:13;2.67;;;2.30;;
5277;SDS011;2662;51.194;6.614;2023-04-24T08:24:40;2.50;;;2.30;;
5277;SDS011;2662;51.194;6.614;2023-04-24T08:27:07;2.70;;;2.50;;
5277;SDS011;2662;51.194;6.614;2023-04-24T08:29:35;2.93;;;2.63;;
5277;SDS011;2662;51.194;6.614;2023-04-24T08:32:03;7.40;;;2.90;;
5277;SDS011;2662;51.194;6.614;2023-04-24T08:34:30;4.60;;;2.40;;
5277;SDS011;2662;51.194;6.614;2023-04-24T08:36:57;2.40;;;1.53;;
5277;SDS011;2662;51.194;6.614;2023-04-24T08:39:23;6.87;;;2.60;;
5277;SDS011;2662;51.194;6.614;2023-04-24T08:41:50;4.60;;;1.90;;
5277;SDS011;2662;51.194;6.614;2023-04-24T08:44:19;3.70;;;2.33;;
5277;SDS011;2662;51.194;6.614;2023-04-24T08:46:46;2.33;;;2.07;;
5277;SDS011;2662;51.194;6.614;2023-04-24T08:49:15;2.40;;;2.20;;
5277;SDS011;2662;51.194;6.614;2023-04-24T08:51:42;2.13;;;1.90;;
5277;SDS011;2662;51.194;6.614;2023-04-24T08:54:09;10.37;;;2.33;;
5277;SDS011;2662;51.194;6.614;2023-04-24T08:56:37;3.17;;;2.73;;
5277;SDS011;2662;51.194;6.614;2023-04-24T08:59:06;2.60;;;2.40;;
5277;SDS011;2662;51.194;6.614;2023-04-24T09:01:33;4.70;;;2.40;;
5277;SDS011;2662;51.194;6.614;2023-04-24T09:04:04;2.80;;;2.50;;
5277;SDS011;2662;51.194;6.614;2023-04-24T09:06:39;2.33;;;2.13;;
5277;SDS011;2662;51.194;6.614;2023-04-24T09:09:06;6.17;;;2.63;;
5277;SDS011;2662;51.194;6.614;2023-04-24T09:11:34;7.80;;;3.60;;
5277;SDS011;2662;51.194;6.614;2023-04-24T09:14:02;5.97;;;3.63;;
5277;SDS011;2662;51.194;6.614;2023-04-24T09:16:30;6.43;;;3.37;;
5277;SDS011;2662;51.194;6.614;2023-04-24T09:18:58;5.87;;;3.97;;
5277;SDS011;2662;51.194;6.614;2023-04-24T09:21:25;8.80;;;3.53;;
5277;SDS011;2662;51.194;6.614;2023-04-24T09:24:00;6.57;;;3.80;;
5277;SDS011;2662;51.194;6.614;2023-04-24T09:26:29;7.90;;;3.17;;
5277;SDS011;2662;51.194;6.614;2023-04-24T09:28:58;11.57;;;4.43;;
5277;SDS011;2662;51.194;6.614;2023-04-24T09:31:26;12.30;;;6.27;;
5277;SDS011;2662;51.194;6.614;2023-04-24T09:33:54;7.83;;;4.60;;
5277;SDS011;2662;51.194;6.614;2023-04-24T09:36:29;12.50;;;4.63;;
5277;SDS011;2662;51.194;6.614;2023-04-24T09:38:59;14.97;;;5.27;;
5277;SDS011;2662;51.194;6.614;2023-04-24T09:41:27;11.40;;;5.30;;
5277;SDS011;2662;51.194;6.614;2023-04-24T09:43:55;8.87;;;4.53;;
5277;SDS011;2662;51.194;6.614;2023-04-24T09:46:28;11.03;;;5.33;;
5277;SDS011;2662;51.194;6.614;2023-04-24T09:48:56;9.77;;;4.57;;
5277;SDS011;2662;51.194;6.614;2023-04-24T09:51:32;13.53;;;4.83;;
5277;SDS011;2662;51.194;6.614;2023-04-24T09:54:02;7.33;;;4.77;;
5277;SDS011;2662;51.194;6.614;2023-04-24T09:56:32;6.77;;;4.70;;
5277;SDS011;2662;51.194;6.614;2023-04-24T09:59:04;11.33;;;5.00;;
5277;SDS011;2662;51.194;6.614;2023-04-24T10:01:32;7.50;;;4.30;;
5277;SDS011;2662;51.194;6.614;2023-04-24T10:03:59;7.37;;;4.43;;
5277;SDS011;2662;51.194;6.614;2023-04-24T10:06:29;11.77;;;4.37;;
5277;SDS011;2662;51.194;6.614;2023-04-24T10:08:58;9.97;;;4.77;;
5277;SDS011;2662;51.194;6.614;2023-04-24T10:11:27;11.33;;;4.50;;
5277;SDS011;2662;51.194;6.614;2023-04-24T10:13:54;18.80;;;4.90;;
5277;SDS011;2662;51.194;6.614;2023-04-24T10:16:22;9.53;;;4.60;;
5277;SDS011;2662;51.194;6.614;2023-04-24T10:18:52;10.90;;;4.17;;
5277;SDS011;2662;51.194;6.614;2023-04-24T10:21:19;11.03;;;5.00;;
5277;SDS011;2662;51.194;6.614;2023-04-24T10:23:46;14.00;;;5.00;;
5277;SDS011;2662;51.194;6.614;2023-04-24T10:26:15;15.40;;;4.67;;
5277;SDS011;2662;51.194;6.614;2023-04-24T10:28:46;8.97;;;3.80;;
5277;SDS011;2662;51.194;6.614;2023-04-24T10:31:13;9.77;;;3.87;;
5277;SDS011;2662;51.194;6.614;2023-04-24T10:33:41;7.30;;;3.67;;
5277;SDS011;2662;51.194;6.614;2023-04-24T10:36:09;15.23;;;3.60;;
5277;SDS011;2662;51.194;6.614;2023-04-24T10:38:37;7.33;;;4.33;;
5277;SDS011;2662;51.194;6.614;2023-04-24T10:41:07;17.63;;;4.20;;
5277;SDS011;2662;51.194;6.614;2023-04-24T10:43:37;6.63;;;3.17;;
5277;SDS011;2662;51.194;6.614;2023-04-24T10:46:07;6.27;;;3.40;;
5277;SDS011;2662;51.194;6.614;2023-04-24T10:48:36;6.23;;;3.60;;
5277;SDS011;2662;51.194;6.614;2023-04-24T10:51:10;10.93;;;3.30;;
5277;SDS011;2662;51.194;6.614;2023-04-24T10:53:39;8.50;;;3.43;;
5277;SDS011;2662;51.194;6.614;2023-04-24T10:56:06;9.83;;;3.93;;
5277;SDS011;2662;51.194;6.614;2023-04-24T10:58:36;7.30;;;3.40;;
5277;SDS011;2662;51.194;6.614;2023-04-24T11:01:06;11.07;;;2.90;;
5277;SDS011;2662;51.194;6.614;2023-04-24T11:03:34;11.20;;;4.60;;
5277;SDS011;2662;51.194;6.614;2023-04-24T11:06:02;11.47;;;3.50;;
5277;SDS011;2662;51.194;6.614;2023-04-24T11:08:31;11.10;;;2.70;;
5277;SDS011;2662;51.194;6.614;2023-04-24T11:11:08;11.97;;;2.60;;
5277;SDS011;2662;51.194;6.614;2023-04-24T11:16:30;8.93;;;2.43;;
5277;SDS011;2662;51.194;6.614;2023-04-24T11:19:02;6.63;;;2.30;;
5277;SDS011;2662;51.194;6.614;2023-04-24T11:21:31;10.37;;;2.80;;
5277;SDS011;2662;51.194;6.614;2023-04-24T11:23:58;8.33;;;3.00;;
5277;SDS011;2662;51.194;6.614;2023-04-24T11:26:25;12.83;;;3.00;;
5277;SDS011;2662;51.194;6.614;2023-04-24T11:29:05;7.13;;;3.23;;
5277;SDS011;2662;51.194;6.614;2023-04-24T11:31:38;7.30;;;2.33;;
5277;SDS011;2662;51.194;6.614;2023-04-24T13:35:21;8.43;;;1.83;;
5277;SDS011;2662;51.194;6.614;2023-04-24T13:37:48;5.33;;;1.80;;
5277;SDS011;2662;51.194;6.614;2023-04-24T13:40:15;4.60;;;1.50;;
5277;SDS011;2662;51.194;6.614;2023-04-24T13:42:42;9.67;;;1.40;;
5277;SDS011;2662;51.194;6.614;2023-04-24T13:45:09;4.43;;;1.77;;
5277;SDS011;2662;51.194;6.614;2023-04-24T13:47:36;7.07;;;1.80;;
5277;SDS011;2662;51.194;6.614;2023-04-24T13:50:06;2.47;;;1.40;;
5277;SDS011;2662;51.194;6.614;2023-04-24T13:52:34;3.07;;;1.33;;
5277;SDS011;2662;51.194;6.614;2023-04-24T13:55:01;5.53;;;1.57;;
5277;SDS011;2662;51.194;6.614;2023-04-24T13:57:28;2.90;;;2.07;;
5277;SDS011;2662;51.194;6.614;2023-04-24T13:59:55;2.63;;;1.47;;
5277;SDS011;2662;51.194;6.614;2023-04-24T14:02:26;3.33;;;1.60;;
5277;SDS011;2662;51.194;6.614;2023-04-24T14:04:53;3.10;;;1.50;;
5277;SDS011;2662;51.194;6.614;2023-04-24T14:07:19;3.13;;;1.53;;
5277;SDS011;2662;51.194;6.614;2023-04-24T14:09:48;6.47;;;1.17;;
5277;SDS011;2662;51.194;6.614;2023-04-24T14:12:14;1.33;;;1.23;;
5277;SDS011;2662;51.194;6.614;2023-04-24T14:14:44;13.00;;;1.47;;
5277;SDS011;2662;51.194;6.614;2023-04-24T14:17:11;3.33;;;1.10;;
5277;SDS011;2662;51.194;6.614;2023-04-24T14:19:38;3.43;;;1.20;;
5277;SDS011;2662;51.194;6.614;2023-04-24T14:22:05;1.10;;;0.90;;
5277;SDS011;2662;51.194;6.614;2023-04-24T14:24:32;2.10;;;1.20;;
5277;SDS011;2662;51.194;6.614;2023-04-24T14:27:00;1.90;;;1.40;;
5277;SDS011;2662;51.194;6.614;2023-04-24T14:29:26;4.00;;;1.40;;
5277;SDS011;2662;51.194;6.614;2023-04-24T14:31:53;1.43;;;1.33;;
5277;SDS011;2662;51.194;6.614;2023-04-24T14:34:20;4.33;;;1.63;;
5277;SDS011;2662;51.194;6.614;2023-04-24T14:36:47;5.00;;;1.40;;
5277;SDS011;2662;51.194;6.614;2023-04-24T14:39:13;2.20;;;1.73;;
5277;SDS011;2662;51.194;6.614;2023-04-24T14:41:40;4.23;;;1.37;;
5277;SDS011;2662;51.194;6.614;2023-04-24T14:44:08;1.10;;;1.10;;
5277;SDS011;2662;51.194;6.614;2023-04-24T14:46:35;4.30;;;1.30;;
5277;SDS011;2662;51.194;6.614;2023-04-24T14:49:02;5.73;;;1.40;;
5277;SDS011;2662;51.194;6.614;2023-04-24T14:51:29;2.03;;;1.33;;
5277;SDS011;2662;51.194;6.614;2023-04-24T14:53:56;2.50;;;1.40;;
5277;SDS011;2662;51.194;6.614;2023-04-24T14:56:24;2.47;;;1.30;;
5277;SDS011;2662;51.194;6.614;2023-04-24T14:58:51;1.53;;;1.07;;
5277;SDS011;2662;51.194;6.614;2023-04-24T15:01:19;4.20;;;1.30;;
5277;SDS011;2662;51.194;6.614;2023-04-24T15:03:46;3.50;;;1.37;;
5277;SDS011;2662;51.194;6.614;2023-04-24T15:06:12;3.80;;;1.53;;
5277;SDS011;2662;51.194;6.614;2023-04-24T15:08:39;2.47;;;1.20;;
5277;SDS011;2662;51.194;6.614;2023-04-24T15:11:07;4.10;;;1.30;;
5277;SDS011;2662;51.194;6.614;2023-04-24T15:13:34;1.97;;;1.20;;
5277;SDS011;2662;51.194;6.614;2023-04-24T15:16:00;13.73;;;1.50;;
5277;SDS011;2662;51.194;6.614;2023-04-24T15:18:29;3.37;;;1.50;;
5277;SDS011;2662;51.194;6.614;2023-04-24T15:20:56;2.00;;;1.70;;
5277;SDS011;2662;51.194;6.614;2023-04-24T15:23:22;5.80;;;1.40;;
5277;SDS011;2662;51.194;6.614;2023-04-24T15:25:49;2.50;;;1.37;;
5277;SDS011;2662;51.194;6.614;2023-04-24T15:28:16;2.70;;;1.17;;
5277;SDS011;2662;51.194;6.614;2023-04-24T15:30:43;5.80;;;1.70;;
5277;SDS011;2662;51.194;6.614;2023-04-24T15:33:09;9.97;;;2.70;;
5277;SDS011;2662;51.194;6.614;2023-04-24T15:35:37;4.97;;;1.63;;
5277;SDS011;2662;51.194;6.614;2023-04-24T15:38:05;4.30;;;1.50;;
5277;SDS011;2662;51.194;6.614;2023-04-24T15:40:31;1.63;;;1.50;;
5277;SDS011;2662;51.194;6.614;2023-04-24T15:42:58;4.83;;;2.23;;
5277;SDS011;2662;51.194;6.614;2023-04-24T15:45:25;6.63;;;1.60;;
5277;SDS011;2662;51.194;6.614;2023-04-24T15:47:52;3.93;;;1.30;;
5277;SDS011;2662;51.194;6.614;2023-04-24T15:50:18;1.90;;;1.47;;
5277;SDS011;2662;51.194;6.614;2023-04-24T15:52:48;2.77;;;1.50;;
5277;SDS011;2662;51.194;6.614;2023-04-24T15:55:14;6.73;;;1.67;;
5277;SDS011;2662;51.194;6.614;2023-04-24T15:57:41;7.93;;;1.60;;
5277;SDS011;2662;51.194;6.614;2023-04-24T16:00:09;5.50;;;1.60;;
5277;SDS011;2662;51.194;6.614;2023-04-24T16:02:36;2.00;;;1.67;;
5277;SDS011;2662;51.194;6.614;2023-04-24T16:05:03;1.63;;;1.30;;
5277;SDS011;2662;51.194;6.614;2023-04-24T16:07:32;3.93;;;1.67;;
5277;SDS011;2662;51.194;6.614;2023-04-24T16:10:00;2.60;;;1.70;;
5277;SDS011;2662;51.194;6.614;2023-04-24T16:12:27;2.07;;;1.37;;
5277;SDS011;2662;51.194;6.614;2023-04-24T16:14:54;2.40;;;1.40;;
5277;SDS011;2662;51.194;6.614;2023-04-24T16:17:20;2.10;;;1.57;;
5277;SDS011;2662;51.194;6.614;2023-04-24T16:19:47;1.53;;;1.43;;
5277;SDS011;2662;51.194;6.614;2023-04-24T16:22:14;2.93;;;1.23;;
5277;SDS011;2662;51.194;6.614;2023-04-24T16:24:40;3.90;;;1.10;;
5277;SDS011;2662;51.194;6.614;2023-04-24T16:27:09;1.83;;;1.20;;
5277;SDS011;2662;51.194;6.614;2023-04-24T16:29:36;1.93;;;1.50;;
5277;SDS011;2662;51.194;6.614;2023-04-24T16:32:03;4.63;;;1.40;;
5277;SDS011;2662;51.194;6.614;2023-04-24T16:34:30;2.63;;;1.20;;
5277;SDS011;2662;51.194;6.614;2023-04-24T16:36:56;1.67;;;0.80;;
5277;SDS011;2662;51.194;6.614;2023-04-24T16:39:23;2.20;;;1.13;;
5277;SDS011;2662;51.194;6.614;2023-04-24T16:41:51;2.10;;;1.73;;
5277;SDS011;2662;51.194;6.614;2023-04-24T16:44:20;3.60;;;1.27;;
5277;SDS011;2662;51.194;6.614;2023-04-24T16:46:46;5.03;;;1.73;;
5277;SDS011;2662;51.194;6.614;2023-04-24T16:49:13;3.33;;;1.60;;
5277;SDS011;2662;51.194;6.614;2023-04-24T16:51:40;6.10;;;1.23;;
5277;SDS011;2662;51.194;6.614;2023-04-24T16:54:07;4.47;;;1.73;;
5277;SDS011;2662;51.194;6.614;2023-04-24T16:56:33;1.67;;;1.43;;
5277;SDS011;2662;51.194;6.614;2023-04-24T16:59:00;2.60;;;1.83;;
5277;SDS011;2662;51.194;6.614;2023-04-24T17:01:28;3.90;;;1.33;;
5277;SDS011;2662;51.194;6.614;2023-04-24T17:03:55;1.43;;;1.03;;
5277;SDS011;2662;51.194;6.614;2023-04-24T17:06:21;3.80;;;1.23;;
5277;SDS011;2662;51.194;6.614;2023-04-24T17:08:49;4.40;;;1.90;;
5277;SDS011;2662;51.194;6.614;2023-04-24T17:11:15;3.53;;;1.20;;
5277;SDS011;2662;51.194;6.614;2023-04-24T17:13:42;1.67;;;1.30;;
5277;SDS011;2662;51.194;6.614;2023-04-24T17:16:09;2.70;;;1.63;;